Red Wing, Minnesota
Current Conditions -  °F | °C
As of 6:55 AM on Monday 20 Oct 2014 (Local Time) from KRGK Reporting Station
Clear Clear  
Wind Chill: 40°   Ceiling: Unl
Heat Index: 43°   Visibility: 10mi
Dew Point: 39°   Wind: 5mph
Humidity: 87%   Direction: 270°W
Pressure: 29.93"   Gusts: NA
Location:  44.57°N, 92.53°W
Report Text: KRGK 201155Z AUTO 27004KT 10SM CLR 06/04 A2993 RMK AO2
Loading
Personal Weather Stations






























Interactive Weather Map New forecast layout! Learn more

10-Day Weather Forecast

Advertisements
Track Severe Weather on mobile